sensor_id;sensor_type;location;lat;lon;timestamp;P1;durP1;ratioP1;P2;durP2;ratioP2
23266;SDS011;11802;53.160;8.214;2023-06-22T00:01:50;33.25;;;25.55;;
23266;SDS011;11802;53.160;8.214;2023-06-22T00:04:16;33.63;;;24.15;;
23266;SDS011;11802;53.160;8.214;2023-06-22T00:06:41;28.88;;;23.48;;
23266;SDS011;11802;53.160;8.214;2023-06-22T00:09:07;32.15;;;26.23;;
23266;SDS011;11802;53.160;8.214;2023-06-22T00:11:36;31.52;;;25.23;;
23266;SDS011;11802;53.160;8.214;2023-06-22T00:14:02;33.97;;;26.23;;
23266;SDS011;11802;53.160;8.214;2023-06-22T00:16:28;35.92;;;26.77;;
23266;SDS011;11802;53.160;8.214;2023-06-22T00:18:54;36.05;;;27.02;;
23266;SDS011;11802;53.160;8.214;2023-06-22T00:21:20;28.55;;;24.20;;
23266;SDS011;11802;53.160;8.214;2023-06-22T00:23:45;29.98;;;23.70;;
23266;SDS011;11802;53.160;8.214;2023-06-22T00:26:12;31.38;;;24.42;;
23266;SDS011;11802;53.160;8.214;2023-06-22T00:28:38;30.10;;;24.00;;
23266;SDS011;11802;53.160;8.214;2023-06-22T00:31:03;33.63;;;25.33;;
23266;SDS011;11802;53.160;8.214;2023-06-22T00:33:29;29.05;;;23.58;;
23266;SDS011;11802;53.160;8.214;2023-06-22T00:35:55;32.55;;;25.05;;
23266;SDS011;11802;53.160;8.214;2023-06-22T00:38:20;32.40;;;25.27;;
23266;SDS011;11802;53.160;8.214;2023-06-22T00:40:46;30.00;;;24.00;;
23266;SDS011;11802;53.160;8.214;2023-06-22T00:43:11;30.65;;;25.45;;
23266;SDS011;11802;53.160;8.214;2023-06-22T00:45:37;32.70;;;25.33;;
23266;SDS011;11802;53.160;8.214;2023-06-22T00:48:03;35.50;;;28.05;;
23266;SDS011;11802;53.160;8.214;2023-06-22T00:50:30;30.90;;;25.50;;
23266;SDS011;11802;53.160;8.214;2023-06-22T00:53:04;37.25;;;28.73;;
23266;SDS011;11802;53.160;8.214;2023-06-22T00:55:35;36.83;;;27.98;;
23266;SDS011;11802;53.160;8.214;2023-06-22T00:58:03;33.92;;;25.77;;
23266;SDS011;11802;53.160;8.214;2023-06-22T01:00:32;37.45;;;26.77;;
23266;SDS011;11802;53.160;8.214;2023-06-22T01:02:58;34.70;;;26.00;;
23266;SDS011;11802;53.160;8.214;2023-06-22T01:05:24;30.73;;;23.85;;
23266;SDS011;11802;53.160;8.214;2023-06-22T01:10:23;32.58;;;25.25;;
23266;SDS011;11802;53.160;8.214;2023-06-22T01:16:05;33.08;;;25.80;;
23266;SDS011;11802;53.160;8.214;2023-06-22T01:18:35;31.70;;;24.63;;
23266;SDS011;11802;53.160;8.214;2023-06-22T01:21:05;33.47;;;27.58;;
23266;SDS011;11802;53.160;8.214;2023-06-22T01:29:19;34.72;;;26.20;;
23266;SDS011;11802;53.160;8.214;2023-06-22T01:31:46;32.28;;;25.15;;
23266;SDS011;11802;53.160;8.214;2023-06-22T01:34:13;33.83;;;25.52;;
23266;SDS011;11802;53.160;8.214;2023-06-22T01:36:39;36.78;;;27.90;;
23266;SDS011;11802;53.160;8.214;2023-06-22T01:39:06;31.83;;;26.63;;
23266;SDS011;11802;53.160;8.214;2023-06-22T01:41:34;38.05;;;29.20;;
23266;SDS011;11802;53.160;8.214;2023-06-22T01:44:02;33.78;;;26.73;;
23266;SDS011;11802;53.160;8.214;2023-06-22T01:46:31;31.52;;;25.70;;
23266;SDS011;11802;53.160;8.214;2023-06-22T01:48:58;36.65;;;27.58;;
23266;SDS011;11802;53.160;8.214;2023-06-22T01:51:24;34.70;;;27.33;;
23266;SDS011;11802;53.160;8.214;2023-06-22T01:53:49;32.67;;;26.38;;
23266;SDS011;11802;53.160;8.214;2023-06-22T01:56:18;32.72;;;25.85;;
23266;SDS011;11802;53.160;8.214;2023-06-22T01:58:49;33.13;;;26.80;;
23266;SDS011;11802;53.160;8.214;2023-06-22T02:01:25;38.20;;;29.38;;
23266;SDS011;11802;53.160;8.214;2023-06-22T02:04:06;35.10;;;27.13;;
23266;SDS011;11802;53.160;8.214;2023-06-22T02:06:37;32.97;;;26.33;;
23266;SDS011;11802;53.160;8.214;2023-06-22T02:09:11;35.10;;;26.13;;
23266;SDS011;11802;53.160;8.214;2023-06-22T02:11:40;32.00;;;25.52;;
23266;SDS011;11802;53.160;8.214;2023-06-22T02:14:07;34.55;;;25.48;;
23266;SDS011;11802;53.160;8.214;2023-06-22T02:16:34;32.20;;;25.00;;
23266;SDS011;11802;53.160;8.214;2023-06-22T02:19:01;32.28;;;26.33;;
23266;SDS011;11802;53.160;8.214;2023-06-22T02:21:31;36.83;;;27.90;;
23266;SDS011;11802;53.160;8.214;2023-06-22T02:23:57;33.00;;;25.65;;
23266;SDS011;11802;53.160;8.214;2023-06-22T02:26:22;33.30;;;26.65;;
23266;SDS011;11802;53.160;8.214;2023-06-22T02:28:50;33.40;;;26.05;;
23266;SDS011;11802;53.160;8.214;2023-06-22T02:31:15;31.83;;;24.30;;
23266;SDS011;11802;53.160;8.214;2023-06-22T02:33:41;32.42;;;25.23;;
23266;SDS011;11802;53.160;8.214;2023-06-22T02:36:06;34.15;;;26.52;;
23266;SDS011;11802;53.160;8.214;2023-06-22T02:38:34;32.13;;;27.50;;
23266;SDS011;11802;53.160;8.214;2023-06-22T02:41:01;33.30;;;27.10;;
23266;SDS011;11802;53.160;8.214;2023-06-22T02:43:27;35.80;;;26.52;;
23266;SDS011;11802;53.160;8.214;2023-06-22T02:45:53;36.25;;;28.20;;
23266;SDS011;11802;53.160;8.214;2023-06-22T02:48:19;34.15;;;25.58;;
23266;SDS011;11802;53.160;8.214;2023-06-22T02:50:45;37.17;;;29.13;;
23266;SDS011;11802;53.160;8.214;2023-06-22T02:53:10;31.92;;;26.05;;
23266;SDS011;11802;53.160;8.214;2023-06-22T02:55:36;33.03;;;25.60;;
23266;SDS011;11802;53.160;8.214;2023-06-22T02:58:01;34.50;;;27.02;;
23266;SDS011;11802;53.160;8.214;2023-06-22T03:00:30;35.85;;;28.38;;
23266;SDS011;11802;53.160;8.214;2023-06-22T03:02:56;34.85;;;28.50;;
23266;SDS011;11802;53.160;8.214;2023-06-22T03:05:22;37.53;;;29.75;;
23266;SDS011;11802;53.160;8.214;2023-06-22T03:07:48;40.30;;;32.17;;
23266;SDS011;11802;53.160;8.214;2023-06-22T03:10:14;40.28;;;29.80;;
23266;SDS011;11802;53.160;8.214;2023-06-22T03:12:41;37.33;;;29.80;;
23266;SDS011;11802;53.160;8.214;2023-06-22T03:15:08;39.58;;;29.88;;
23266;SDS011;11802;53.160;8.214;2023-06-22T03:17:35;38.08;;;29.13;;
23266;SDS011;11802;53.160;8.214;2023-06-22T03:20:02;43.97;;;31.75;;
23266;SDS011;11802;53.160;8.214;2023-06-22T03:22:35;39.83;;;31.13;;
23266;SDS011;11802;53.160;8.214;2023-06-22T03:25:01;38.60;;;29.85;;
23266;SDS011;11802;53.160;8.214;2023-06-22T03:27:27;42.45;;;31.17;;
23266;SDS011;11802;53.160;8.214;2023-06-22T03:29:53;37.72;;;29.42;;
23266;SDS011;11802;53.160;8.214;2023-06-22T03:32:18;37.47;;;29.08;;
23266;SDS011;11802;53.160;8.214;2023-06-22T03:34:44;38.10;;;30.08;;
23266;SDS011;11802;53.160;8.214;2023-06-22T03:37:12;41.55;;;31.10;;
23266;SDS011;11802;53.160;8.214;2023-06-22T03:39:39;39.25;;;31.65;;
23266;SDS011;11802;53.160;8.214;2023-06-22T03:42:04;35.80;;;28.45;;
23266;SDS011;11802;53.160;8.214;2023-06-22T03:44:30;38.65;;;27.95;;
23266;SDS011;11802;53.160;8.214;2023-06-22T03:46:56;39.25;;;29.10;;
23266;SDS011;11802;53.160;8.214;2023-06-22T03:49:21;36.25;;;28.77;;
23266;SDS011;11802;53.160;8.214;2023-06-22T03:51:47;35.60;;;27.73;;
23266;SDS011;11802;53.160;8.214;2023-06-22T03:54:12;33.00;;;26.58;;
23266;SDS011;11802;53.160;8.214;2023-06-22T03:56:38;32.55;;;27.35;;
23266;SDS011;11802;53.160;8.214;2023-06-22T03:59:03;34.20;;;26.00;;
23266;SDS011;11802;53.160;8.214;2023-06-22T04:01:29;33.50;;;27.35;;
23266;SDS011;11802;53.160;8.214;2023-06-22T04:03:54;31.55;;;26.50;;
23266;SDS011;11802;53.160;8.214;2023-06-22T04:06:20;32.03;;;27.27;;
23266;SDS011;11802;53.160;8.214;2023-06-22T04:08:47;31.55;;;26.15;;
23266;SDS011;11802;53.160;8.214;2023-06-22T04:11:15;32.72;;;27.05;;
23266;SDS011;11802;53.160;8.214;2023-06-22T04:13:44;32.05;;;25.98;;
23266;SDS011;11802;53.160;8.214;2023-06-22T04:16:09;31.30;;;26.35;;
23266;SDS011;11802;53.160;8.214;2023-06-22T04:18:35;32.70;;;26.05;;
23266;SDS011;11802;53.160;8.214;2023-06-22T04:21:01;29.10;;;23.23;;
23266;SDS011;11802;53.160;8.214;2023-06-22T04:23:27;29.23;;;25.35;;
23266;SDS011;11802;53.160;8.214;2023-06-22T04:25:53;30.92;;;23.98;;
23266;SDS011;11802;53.160;8.214;2023-06-22T04:28:18;28.77;;;23.45;;
23266;SDS011;11802;53.160;8.214;2023-06-22T04:30:44;31.98;;;26.45;;
23266;SDS011;11802;53.160;8.214;2023-06-22T04:33:16;33.35;;;27.60;;
23266;SDS011;11802;53.160;8.214;2023-06-22T04:35:44;34.42;;;28.25;;
23266;SDS011;11802;53.160;8.214;2023-06-22T04:38:11;29.95;;;25.00;;
23266;SDS011;11802;53.160;8.214;2023-06-22T04:40:41;32.30;;;25.75;;
23266;SDS011;11802;53.160;8.214;2023-06-22T04:43:06;30.23;;;24.92;;
23266;SDS011;11802;53.160;8.214;2023-06-22T04:45:32;31.20;;;25.15;;
23266;SDS011;11802;53.160;8.214;2023-06-22T04:47:58;30.98;;;25.27;;
23266;SDS011;11802;53.160;8.214;2023-06-22T04:50:24;32.95;;;26.13;;
23266;SDS011;11802;53.160;8.214;2023-06-22T04:52:50;32.47;;;26.25;;
23266;SDS011;11802;53.160;8.214;2023-06-22T04:55:16;33.30;;;26.25;;
23266;SDS011;11802;53.160;8.214;2023-06-22T04:57:45;32.40;;;26.30;;
23266;SDS011;11802;53.160;8.214;2023-06-22T05:00:14;30.25;;;25.48;;
23266;SDS011;11802;53.160;8.214;2023-06-22T05:02:42;30.75;;;25.42;;
23266;SDS011;11802;53.160;8.214;2023-06-22T05:05:09;32.28;;;25.45;;
23266;SDS011;11802;53.160;8.214;2023-06-22T05:07:38;29.80;;;23.80;;
23266;SDS011;11802;53.160;8.214;2023-06-22T05:10:08;31.83;;;25.73;;
23266;SDS011;11802;53.160;8.214;2023-06-22T05:12:35;29.85;;;24.58;;
23266;SDS011;11802;53.160;8.214;2023-06-22T05:15:01;30.77;;;24.33;;
23266;SDS011;11802;53.160;8.214;2023-06-22T05:17:26;29.15;;;23.98;;
23266;SDS011;11802;53.160;8.214;2023-06-22T05:19:52;29.73;;;23.90;;
23266;SDS011;11802;53.160;8.214;2023-06-22T05:22:18;28.63;;;23.02;;
23266;SDS011;11802;53.160;8.214;2023-06-22T05:24:44;29.35;;;23.88;;
23266;SDS011;11802;53.160;8.214;2023-06-22T05:27:10;27.50;;;22.38;;
23266;SDS011;11802;53.160;8.214;2023-06-22T05:29:36;26.90;;;23.17;;
23266;SDS011;11802;53.160;8.214;2023-06-22T05:32:02;27.85;;;22.65;;
23266;SDS011;11802;53.160;8.214;2023-06-22T05:34:28;28.33;;;22.50;;
23266;SDS011;11802;53.160;8.214;2023-06-22T05:36:53;25.77;;;21.98;;
23266;SDS011;11802;53.160;8.214;2023-06-22T05:39:19;27.73;;;21.48;;
23266;SDS011;11802;53.160;8.214;2023-06-22T05:41:45;25.40;;;20.15;;
23266;SDS011;11802;53.160;8.214;2023-06-22T05:44:11;26.70;;;19.65;;
23266;SDS011;11802;53.160;8.214;2023-06-22T05:46:37;26.25;;;19.50;;
23266;SDS011;11802;53.160;8.214;2023-06-22T05:49:05;22.63;;;18.98;;
23266;SDS011;11802;53.160;8.214;2023-06-22T05:51:31;26.92;;;18.80;;
23266;SDS011;11802;53.160;8.214;2023-06-22T05:53:56;21.42;;;16.73;;
23266;SDS011;11802;53.160;8.214;2023-06-22T05:56:22;22.27;;;16.25;;
23266;SDS011;11802;53.160;8.214;2023-06-22T05:58:47;16.50;;;14.23;;
23266;SDS011;11802;53.160;8.214;2023-06-22T06:01:13;16.60;;;12.82;;
23266;SDS011;11802;53.160;8.214;2023-06-22T06:03:40;15.70;;;13.43;;
23266;SDS011;11802;53.160;8.214;2023-06-22T06:06:06;14.90;;;11.70;;
23266;SDS011;11802;53.160;8.214;2023-06-22T06:08:32;14.65;;;11.50;;
23266;SDS011;11802;53.160;8.214;2023-06-22T06:10:58;13.52;;;9.85;;
23266;SDS011;11802;53.160;8.214;2023-06-22T06:13:23;12.65;;;10.15;;
23266;SDS011;11802;53.160;8.214;2023-06-22T06:15:49;13.35;;;9.75;;
23266;SDS011;11802;53.160;8.214;2023-06-22T06:18:16;11.98;;;8.90;;
23266;SDS011;11802;53.160;8.214;2023-06-22T06:20:42;12.35;;;10.43;;
23266;SDS011;11802;53.160;8.214;2023-06-22T06:23:08;10.52;;;8.98;;
23266;SDS011;11802;53.160;8.214;2023-06-22T06:25:40;11.75;;;8.93;;
23266;SDS011;11802;53.160;8.214;2023-06-22T06:28:09;11.25;;;8.77;;
23266;SDS011;11802;53.160;8.214;2023-06-22T06:30:34;12.82;;;9.85;;
23266;SDS011;11802;53.160;8.214;2023-06-22T06:33:02;13.65;;;9.10;;
23266;SDS011;11802;53.160;8.214;2023-06-22T06:35:27;10.95;;;9.65;;
23266;SDS011;11802;53.160;8.214;2023-06-22T06:37:53;10.82;;;9.05;;
23266;SDS011;11802;53.160;8.214;2023-06-22T06:40:18;14.48;;;9.52;;
23266;SDS011;11802;53.160;8.214;2023-06-22T06:42:48;12.75;;;10.05;;
23266;SDS011;11802;53.160;8.214;2023-06-22T06:45:18;12.32;;;10.52;;
23266;SDS011;11802;53.160;8.214;2023-06-22T06:47:44;15.38;;;11.93;;
23266;SDS011;11802;53.160;8.214;2023-06-22T06:50:10;14.10;;;11.50;;
23266;SDS011;11802;53.160;8.214;2023-06-22T06:52:37;13.77;;;9.57;;
23266;SDS011;11802;53.160;8.214;2023-06-22T06:55:03;12.60;;;10.15;;
23266;SDS011;11802;53.160;8.214;2023-06-22T06:57:37;12.85;;;10.32;;
23266;SDS011;11802;53.160;8.214;2023-06-22T07:00:03;11.38;;;9.50;;
23266;SDS011;11802;53.160;8.214;2023-06-22T07:02:37;13.38;;;9.82;;
23266;SDS011;11802;53.160;8.214;2023-06-22T07:05:10;10.55;;;9.10;;
23266;SDS011;11802;53.160;8.214;2023-06-22T07:07:36;10.75;;;9.35;;
23266;SDS011;11802;53.160;8.214;2023-06-22T07:10:02;12.48;;;8.45;;
23266;SDS011;11802;53.160;8.214;2023-06-22T07:12:28;11.50;;;9.10;;
23266;SDS011;11802;53.160;8.214;2023-06-22T07:14:56;13.60;;;9.45;;
23266;SDS011;11802;53.160;8.214;2023-06-22T07:17:27;11.57;;;8.88;;
23266;SDS011;11802;53.160;8.214;2023-06-22T07:19:52;11.68;;;8.85;;
23266;SDS011;11802;53.160;8.214;2023-06-22T07:22:18;11.15;;;8.70;;
23266;SDS011;11802;53.160;8.214;2023-06-22T07:24:43;10.10;;;8.35;;
23266;SDS011;11802;53.160;8.214;2023-06-22T07:27:09;11.05;;;8.13;;
23266;SDS011;11802;53.160;8.214;2023-06-22T07:29:37;9.52;;;7.70;;
23266;SDS011;11802;53.160;8.214;2023-06-22T07:32:05;9.65;;;7.82;;
23266;SDS011;11802;53.160;8.214;2023-06-22T07:34:31;10.05;;;7.78;;
23266;SDS011;11802;53.160;8.214;2023-06-22T07:36:56;9.23;;;6.90;;
23266;SDS011;11802;53.160;8.214;2023-06-22T07:39:25;9.98;;;7.30;;
23266;SDS011;11802;53.160;8.214;2023-06-22T07:41:51;9.63;;;6.47;;
23266;SDS011;11802;53.160;8.214;2023-06-22T07:44:18;9.93;;;7.40;;
23266;SDS011;11802;53.160;8.214;2023-06-22T07:46:43;10.77;;;7.82;;
23266;SDS011;11802;53.160;8.214;2023-06-22T07:49:09;8.98;;;6.50;;
23266;SDS011;11802;53.160;8.214;2023-06-22T07:51:34;8.73;;;5.97;;
23266;SDS011;11802;53.160;8.214;2023-06-22T07:54:00;9.40;;;6.65;;
23266;SDS011;11802;53.160;8.214;2023-06-22T07:56:26;7.95;;;6.65;;
23266;SDS011;11802;53.160;8.214;2023-06-22T07:58:52;9.00;;;6.63;;
23266;SDS011;11802;53.160;8.214;2023-06-22T08:01:18;8.73;;;6.38;;
23266;SDS011;11802;53.160;8.214;2023-06-22T08:03:46;10.85;;;6.47;;
23266;SDS011;11802;53.160;8.214;2023-06-22T08:06:15;8.63;;;6.65;;
23266;SDS011;11802;53.160;8.214;2023-06-22T08:08:41;8.40;;;6.40;;
23266;SDS011;11802;53.160;8.214;2023-06-22T08:11:07;10.18;;;6.65;;
23266;SDS011;11802;53.160;8.214;2023-06-22T08:13:33;8.05;;;6.93;;
23266;SDS011;11802;53.160;8.214;2023-06-22T08:15:59;9.50;;;6.78;;
23266;SDS011;11802;53.160;8.214;2023-06-22T08:18:24;7.43;;;6.20;;
23266;SDS011;11802;53.160;8.214;2023-06-22T08:20:50;9.00;;;6.50;;
23266;SDS011;11802;53.160;8.214;2023-06-22T08:23:15;8.50;;;6.40;;
23266;SDS011;11802;53.160;8.214;2023-06-22T08:25:41;11.60;;;6.60;;
23266;SDS011;11802;53.160;8.214;2023-06-22T08:28:07;8.95;;;7.00;;
23266;SDS011;11802;53.160;8.214;2023-06-22T08:30:33;10.55;;;6.35;;
23266;SDS011;11802;53.160;8.214;2023-06-22T08:32:58;9.50;;;6.72;;
23266;SDS011;11802;53.160;8.214;2023-06-22T08:35:24;9.10;;;7.10;;
23266;SDS011;11802;53.160;8.214;2023-06-22T08:37:50;8.40;;;6.18;;
23266;SDS011;11802;53.160;8.214;2023-06-22T08:40:19;9.70;;;6.88;;
23266;SDS011;11802;53.160;8.214;2023-06-22T08:42:45;9.43;;;7.30;;
23266;SDS011;11802;53.160;8.214;2023-06-22T08:45:12;12.93;;;8.10;;
23266;SDS011;11802;53.160;8.214;2023-06-22T08:47:38;10.05;;;7.53;;
23266;SDS011;11802;53.160;8.214;2023-06-22T08:50:04;9.98;;;6.95;;
23266;SDS011;11802;53.160;8.214;2023-06-22T08:52:31;10.18;;;7.57;;
23266;SDS011;11802;53.160;8.214;2023-06-22T08:54:57;8.68;;;6.85;;
23266;SDS011;11802;53.160;8.214;2023-06-22T08:57:23;12.27;;;8.13;;
23266;SDS011;11802;53.160;8.214;2023-06-22T08:59:48;11.98;;;8.98;;
23266;SDS011;11802;53.160;8.214;2023-06-22T09:02:17;10.88;;;8.25;;
23266;SDS011;11802;53.160;8.214;2023-06-22T09:04:42;10.52;;;7.90;;
23266;SDS011;11802;53.160;8.214;2023-06-22T09:07:08;11.05;;;7.47;;
23266;SDS011;11802;53.160;8.214;2023-06-22T09:09:33;10.05;;;7.85;;
23266;SDS011;11802;53.160;8.214;2023-06-22T09:11:59;8.27;;;6.85;;
23266;SDS011;11802;53.160;8.214;2023-06-22T09:14:24;9.10;;;6.50;;
23266;SDS011;11802;53.160;8.214;2023-06-22T09:16:50;10.25;;;6.93;;
23266;SDS011;11802;53.160;8.214;2023-06-22T09:19:15;10.25;;;7.78;;
23266;SDS011;11802;53.160;8.214;2023-06-22T09:21:41;9.98;;;8.68;;
23266;SDS011;11802;53.160;8.214;2023-06-22T09:24:07;10.77;;;6.95;;
23266;SDS011;11802;53.160;8.214;2023-06-22T09:26:33;9.52;;;6.82;;
23266;SDS011;11802;53.160;8.214;2023-06-22T09:28:58;11.15;;;7.20;;
23266;SDS011;11802;53.160;8.214;2023-06-22T09:31:24;9.73;;;7.30;;
23266;SDS011;11802;53.160;8.214;2023-06-22T09:33:55;8.90;;;6.60;;
23266;SDS011;11802;53.160;8.214;2023-06-22T09:36:21;10.60;;;5.90;;
23266;SDS011;11802;53.160;8.214;2023-06-22T09:38:47;10.38;;;7.30;;
23266;SDS011;11802;53.160;8.214;2023-06-22T09:41:14;7.95;;;6.20;;
23266;SDS011;11802;53.160;8.214;2023-06-22T09:43:39;9.32;;;6.35;;
23266;SDS011;11802;53.160;8.214;2023-06-22T09:46:05;11.20;;;7.45;;
23266;SDS011;11802;53.160;8.214;2023-06-22T09:48:32;8.80;;;7.10;;
23266;SDS011;11802;53.160;8.214;2023-06-22T09:50:57;11.07;;;6.75;;
23266;SDS011;11802;53.160;8.214;2023-06-22T09:53:23;8.90;;;6.13;;
23266;SDS011;11802;53.160;8.214;2023-06-22T09:55:48;7.68;;;6.15;;
23266;SDS011;11802;53.160;8.214;2023-06-22T09:58:14;8.27;;;5.93;;
23266;SDS011;11802;53.160;8.214;2023-06-22T10:00:39;10.50;;;6.15;;
23266;SDS011;11802;53.160;8.214;2023-06-22T10:03:06;9.70;;;6.03;;
23266;SDS011;11802;53.160;8.214;2023-06-22T10:05:32;11.45;;;6.10;;
23266;SDS011;11802;53.160;8.214;2023-06-22T10:07:57;9.13;;;6.25;;
23266;SDS011;11802;53.160;8.214;2023-06-22T10:10:23;7.80;;;6.07;;
23266;SDS011;11802;53.160;8.214;2023-06-22T10:12:54;7.40;;;5.53;;
23266;SDS011;11802;53.160;8.214;2023-06-22T10:15:21;8.43;;;6.13;;
23266;SDS011;11802;53.160;8.214;2023-06-22T10:17:47;11.35;;;6.78;;
23266;SDS011;11802;53.160;8.214;2023-06-22T10:20:13;10.02;;;6.60;;
23266;SDS011;11802;53.160;8.214;2023-06-22T10:22:43;7.60;;;5.88;;
23266;SDS011;11802;53.160;8.214;2023-06-22T10:25:12;8.98;;;6.05;;
23266;SDS011;11802;53.160;8.214;2023-06-22T10:27:38;9.65;;;6.60;;
23266;SDS011;11802;53.160;8.214;2023-06-22T10:30:05;11.00;;;7.20;;
23266;SDS011;11802;53.160;8.214;2023-06-22T10:32:35;9.73;;;6.00;;
23266;SDS011;11802;53.160;8.214;2023-06-22T10:35:02;9.35;;;6.68;;
23266;SDS011;11802;53.160;8.214;2023-06-22T10:37:28;10.43;;;7.07;;
23266;SDS011;11802;53.160;8.214;2023-06-22T10:39:53;8.45;;;6.53;;
23266;SDS011;11802;53.160;8.214;2023-06-22T10:42:19;9.10;;;6.20;;
23266;SDS011;11802;53.160;8.214;2023-06-22T10:44:44;9.65;;;7.50;;
23266;SDS011;11802;53.160;8.214;2023-06-22T10:47:10;10.30;;;7.57;;
23266;SDS011;11802;53.160;8.214;2023-06-22T10:49:39;9.85;;;6.72;;
23266;SDS011;11802;53.160;8.214;2023-06-22T10:52:08;9.43;;;7.13;;
23266;SDS011;11802;53.160;8.214;2023-06-22T10:54:34;7.93;;;6.15;;
23266;SDS011;11802;53.160;8.214;2023-06-22T10:57:01;9.43;;;6.95;;
23266;SDS011;11802;53.160;8.214;2023-06-22T10:59:26;8.55;;;6.40;;
23266;SDS011;11802;53.160;8.214;2023-06-22T11:01:53;8.90;;;6.00;;
23266;SDS011;11802;53.160;8.214;2023-06-22T11:04:23;10.57;;;6.85;;
23266;SDS011;11802;53.160;8.214;2023-06-22T11:06:49;10.75;;;7.50;;
23266;SDS011;11802;53.160;8.214;2023-06-22T11:09:16;8.52;;;6.65;;
23266;SDS011;11802;53.160;8.214;2023-06-22T11:11:47;9.48;;;6.25;;
23266;SDS011;11802;53.160;8.214;2023-06-22T11:14:14;9.85;;;6.60;;
23266;SDS011;11802;53.160;8.214;2023-06-22T11:16:47;9.80;;;6.75;;
23266;SDS011;11802;53.160;8.214;2023-06-22T11:19:16;8.77;;;6.53;;
23266;SDS011;11802;53.160;8.214;2023-06-22T11:21:42;9.65;;;5.80;;
23266;SDS011;11802;53.160;8.214;2023-06-22T11:24:08;8.70;;;5.57;;
23266;SDS011;11802;53.160;8.214;2023-06-22T11:26:34;7.15;;;4.97;;
23266;SDS011;11802;53.160;8.214;2023-06-22T11:29:00;9.77;;;6.40;;
23266;SDS011;11802;53.160;8.214;2023-06-22T11:31:26;8.93;;;5.45;;
23266;SDS011;11802;53.160;8.214;2023-06-22T11:33:51;8.88;;;5.40;;
23266;SDS011;11802;53.160;8.214;2023-06-22T11:36:17;8.68;;;6.32;;
23266;SDS011;11802;53.160;8.214;2023-06-22T11:38:43;8.88;;;6.85;;
23266;SDS011;11802;53.160;8.214;2023-06-22T11:41:09;8.43;;;5.30;;
23266;SDS011;11802;53.160;8.214;2023-06-22T11:43:35;9.48;;;5.70;;
23266;SDS011;11802;53.160;8.214;2023-06-22T11:46:02;6.72;;;5.53;;
23266;SDS011;11802;53.160;8.214;2023-06-22T11:48:29;8.30;;;6.32;;
23266;SDS011;11802;53.160;8.214;2023-06-22T11:50:54;8.45;;;5.93;;
23266;SDS011;11802;53.160;8.214;2023-06-22T11:53:24;7.28;;;5.63;;
23266;SDS011;11802;53.160;8.214;2023-06-22T11:55:50;8.48;;;5.07;;
23266;SDS011;11802;53.160;8.214;2023-06-22T11:58:17;8.90;;;6.72;;
23266;SDS011;11802;53.160;8.214;2023-06-22T12:00:43;9.63;;;6.00;;
23266;SDS011;11802;53.160;8.214;2023-06-22T12:03:10;7.78;;;6.28;;
23266;SDS011;11802;53.160;8.214;2023-06-22T12:05:36;10.88;;;5.95;;
23266;SDS011;11802;53.160;8.214;2023-06-22T12:08:02;9.68;;;6.60;;
23266;SDS011;11802;53.160;8.214;2023-06-22T12:10:27;7.35;;;5.03;;
23266;SDS011;11802;53.160;8.214;2023-06-22T12:12:56;9.32;;;5.10;;
23266;SDS011;11802;53.160;8.214;2023-06-22T12:15:22;12.38;;;6.90;;
23266;SDS011;11802;53.160;8.214;2023-06-22T12:17:48;8.20;;;5.65;;
23266;SDS011;11802;53.160;8.214;2023-06-22T12:20:14;8.32;;;5.68;;
23266;SDS011;11802;53.160;8.214;2023-06-22T12:22:40;8.23;;;6.18;;
23266;SDS011;11802;53.160;8.214;2023-06-22T12:25:06;8.85;;;5.68;;
23266;SDS011;11802;53.160;8.214;2023-06-22T12:27:32;10.75;;;6.10;;
23266;SDS011;11802;53.160;8.214;2023-06-22T12:29:57;10.50;;;6.03;;
23266;SDS011;11802;53.160;8.214;2023-06-22T12:32:23;7.70;;;5.68;;
23266;SDS011;11802;53.160;8.214;2023-06-22T12:34:49;8.43;;;5.78;;
23266;SDS011;11802;53.160;8.214;2023-06-22T12:37:15;7.80;;;6.00;;
23266;SDS011;11802;53.160;8.214;2023-06-22T12:39:40;9.13;;;6.05;;
23266;SDS011;11802;53.160;8.214;2023-06-22T12:42:06;10.52;;;7.20;;
23266;SDS011;11802;53.160;8.214;2023-06-22T12:44:34;12.23;;;6.35;;
23266;SDS011;11802;53.160;8.214;2023-06-22T12:47:00;9.15;;;5.38;;
23266;SDS011;11802;53.160;8.214;2023-06-22T12:49:25;12.93;;;7.10;;
23266;SDS011;11802;53.160;8.214;2023-06-22T12:51:51;9.48;;;6.82;;
23266;SDS011;11802;53.160;8.214;2023-06-22T12:54:16;8.38;;;6.30;;
23266;SDS011;11802;53.160;8.214;2023-06-22T12:56:42;9.52;;;7.20;;
23266;SDS011;11802;53.160;8.214;2023-06-22T12:59:10;10.38;;;7.18;;
23266;SDS011;11802;53.160;8.214;2023-06-22T13:01:36;11.38;;;7.20;;
23266;SDS011;11802;53.160;8.214;2023-06-22T13:04:02;8.23;;;6.40;;
23266;SDS011;11802;53.160;8.214;2023-06-22T13:06:28;10.02;;;5.82;;
23266;SDS011;11802;53.160;8.214;2023-06-22T13:08:53;10.02;;;6.35;;
23266;SDS011;11802;53.160;8.214;2023-06-22T13:11:19;8.23;;;6.20;;
23266;SDS011;11802;53.160;8.214;2023-06-22T13:13:45;7.75;;;6.35;;
23266;SDS011;11802;53.160;8.214;2023-06-22T13:16:11;9.75;;;7.15;;
23266;SDS011;11802;53.160;8.214;2023-06-22T13:18:36;10.57;;;5.30;;
23266;SDS011;11802;53.160;8.214;2023-06-22T13:21:02;9.02;;;6.00;;
23266;SDS011;11802;53.160;8.214;2023-06-22T13:23:28;10.52;;;6.30;;
23266;SDS011;11802;53.160;8.214;2023-06-22T13:25:54;9.32;;;6.22;;
23266;SDS011;11802;53.160;8.214;2023-06-22T13:28:20;10.50;;;7.28;;
23266;SDS011;11802;53.160;8.214;2023-06-22T13:30:46;9.68;;;6.13;;
23266;SDS011;11802;53.160;8.214;2023-06-22T13:33:12;9.98;;;6.13;;
23266;SDS011;11802;53.160;8.214;2023-06-22T13:35:39;8.25;;;6.35;;
23266;SDS011;11802;53.160;8.214;2023-06-22T13:38:04;10.73;;;6.43;;
23266;SDS011;11802;53.160;8.214;2023-06-22T13:40:30;7.55;;;6.00;;
23266;SDS011;11802;53.160;8.214;2023-06-22T13:42:56;8.27;;;5.78;;
23266;SDS011;11802;53.160;8.214;2023-06-22T13:45:22;10.43;;;6.03;;
23266;SDS011;11802;53.160;8.214;2023-06-22T13:47:48;10.55;;;6.05;;
23266;SDS011;11802;53.160;8.214;2023-06-22T13:50:14;8.90;;;5.47;;
23266;SDS011;11802;53.160;8.214;2023-06-22T13:52:39;11.30;;;6.45;;
23266;SDS011;11802;53.160;8.214;2023-06-22T13:55:05;7.32;;;5.30;;
23266;SDS011;11802;53.160;8.214;2023-06-22T13:57:32;9.68;;;5.88;;
23266;SDS011;11802;53.160;8.214;2023-06-22T13:59:58;7.28;;;5.25;;
23266;SDS011;11802;53.160;8.214;2023-06-22T14:02:25;9.25;;;5.82;;
23266;SDS011;11802;53.160;8.214;2023-06-22T14:04:51;8.30;;;6.05;;
23266;SDS011;11802;53.160;8.214;2023-06-22T14:07:16;8.80;;;6.68;;
23266;SDS011;11802;53.160;8.214;2023-06-22T14:09:44;10.68;;;7.18;;
23266;SDS011;11802;53.160;8.214;2023-06-22T14:12:10;9.82;;;6.70;;
23266;SDS011;11802;53.160;8.214;2023-06-22T14:14:36;8.45;;;6.10;;
23266;SDS011;11802;53.160;8.214;2023-06-22T14:17:01;10.30;;;7.32;;
23266;SDS011;11802;53.160;8.214;2023-06-22T14:19:27;11.43;;;8.75;;
23266;SDS011;11802;53.160;8.214;2023-06-22T14:21:53;10.32;;;7.63;;
23266;SDS011;11802;53.160;8.214;2023-06-22T14:24:18;11.05;;;8.10;;
23266;SDS011;11802;53.160;8.214;2023-06-22T14:26:44;10.27;;;7.32;;
23266;SDS011;11802;53.160;8.214;2023-06-22T14:29:09;11.23;;;7.50;;
23266;SDS011;11802;53.160;8.214;2023-06-22T14:31:35;9.85;;;7.22;;
23266;SDS011;11802;53.160;8.214;2023-06-22T14:34:00;11.80;;;7.80;;
23266;SDS011;11802;53.160;8.214;2023-06-22T14:36:27;10.82;;;7.10;;
23266;SDS011;11802;53.160;8.214;2023-06-22T14:38:53;10.00;;;6.88;;
23266;SDS011;11802;53.160;8.214;2023-06-22T14:41:19;12.27;;;6.75;;